Time;durP1;ratioP1;P1;durP2;ratioP2;P2;SDS_P1;SDS_P2;PMS_P1;PMS_P2;Temp;Humidity;BMP_temperature;BMP_pressure;BME280_temperature;BME280_humidity;BME280_pressure;Samples;Min_cycle;Max_cycle;Signal;HPM_P1;HPM_P2
2022/05/27 00:01:39;;;;;;;16.57;9.40;;;;;;;;;;5020827;28;20441;-86
2022/05/27 00:04:05;;;;;;;17.27;9.57;;;;;;;;;;5020714;28;21031;-85
2022/05/27 00:06:33;;;;;;;17.33;9.38;;;;;;;;;;5019463;28;20909;-83
2022/05/27 00:08:59;;;;;;;13.60;9.60;;;;;;;;;;5021424;28;20530;-84
2022/05/27 00:11:25;;;;;;;16.60;9.50;;;;;;;;;;5021785;28;20424;-84
2022/05/27 00:13:52;;;;;;;16.23;9.20;;;;;;;;;;5018302;28;20440;-84
2022/05/27 00:16:19;;;;;;;14.70;8.63;;;;;;;;;;5020146;28;20436;-84
2022/05/27 00:18:45;;;;;;;15.63;8.40;;;;;;;;;;5021250;28;20835;-85
2022/05/27 00:21:12;;;;;;;14.77;8.10;;;;;;;;;;5022255;28;20430;-85
2022/05/27 00:23:40;;;;;;;17.80;9.20;;;;;;;;;;5020402;28;20448;-84
2022/05/27 00:26:06;;;;;;;17.58;8.77;;;;;;;;;;5021368;28;20436;-84
2022/05/27 00:28:33;;;;;;;20.40;8.48;;;;;;;;;;5024151;28;20824;-84
2022/05/27 00:30:59;;;;;;;16.83;8.40;;;;;;;;;;5024993;28;20475;-84
2022/05/27 00:33:26;;;;;;;16.38;8.63;;;;;;;;;;5023680;28;20426;-83
2022/05/27 00:35:52;;;;;;;16.02;8.50;;;;;;;;;;5024219;28;20496;-84
2022/05/27 00:38:19;;;;;;;17.13;8.00;;;;;;;;;;5024730;28;20418;-84
2022/05/27 00:40:48;;;;;;;11.50;8.02;;;;;;;;;;5024289;28;20437;-82
2022/05/27 00:43:14;;;;;;;18.83;8.20;;;;;;;;;;5024978;28;20478;-84
2022/05/27 00:45:42;;;;;;;16.20;8.68;;;;;;;;;;5026650;28;20864;-85
2022/05/27 00:48:12;;;;;;;19.63;9.80;;;;;;;;;;5027301;28;21036;-86
2022/05/27 00:50:40;;;;;;;19.77;10.40;;;;;;;;;;5023223;28;20442;-83
2022/05/27 00:53:07;;;;;;;13.30;8.50;;;;;;;;;;5022057;28;20427;-83
2022/05/27 00:55:35;;;;;;;15.13;8.68;;;;;;;;;;5024044;28;20854;-84
2022/05/27 00:58:07;;;;;;;17.13;8.93;;;;;;;;;;5022899;28;20443;-83
2022/05/27 01:00:34;;;;;;;19.33;9.00;;;;;;;;;;5023630;28;20998;-84
2022/05/27 01:03:01;;;;;;;19.80;8.55;;;;;;;;;;5023102;28;20459;-85
2022/05/27 01:05:27;;;;;;;17.97;7.80;;;;;;;;;;5025023;28;20511;-84
2022/05/27 01:07:54;;;;;;;17.80;8.07;;;;;;;;;;5022437;28;20428;-86
2022/05/27 01:10:21;;;;;;;19.80;7.60;;;;;;;;;;5023386;28;20426;-84
2022/05/27 01:12:53;;;;;;;22.13;9.20;;;;;;;;;;5021806;28;20425;-86
2022/05/27 01:15:26;;;;;;;21.58;9.00;;;;;;;;;;5036866;22;20407;-80
2022/05/27 01:17:59;;;;;;;22.15;9.70;;;;;;;;;;5051902;28;20424;-78
2022/05/27 01:20:29;;;;;;;15.00;8.70;;;;;;;;;;5056087;28;20429;-80
2022/05/27 01:23:11;;;;;;;15.20;8.20;;;;;;;;;;5053443;28;20536;-80
2022/05/27 01:25:57;;;;;;;18.65;8.10;;;;;;;;;;5050197;28;20441;-81
2022/05/27 01:28:41;;;;;;;18.40;8.30;;;;;;;;;;5048911;28;20465;-81
2022/05/27 01:31:14;;;;;;;19.02;7.50;;;;;;;;;;5051575;28;20965;-79
2022/05/27 01:33:44;;;;;;;15.13;7.15;;;;;;;;;;5048763;28;20430;-80
2022/05/27 01:36:15;;;;;;;18.42;6.20;;;;;;;;;;5054491;28;20433;-80
2022/05/27 01:38:44;;;;;;;15.95;6.28;;;;;;;;;;5054861;28;20449;-82
2022/05/27 01:41:13;;;;;;;17.75;6.25;;;;;;;;;;5051488;28;20936;-80
2022/05/27 01:43:40;;;;;;;18.42;5.10;;;;;;;;;;5054302;28;20471;-80
2022/05/27 01:46:09;;;;;;;12.45;4.60;;;;;;;;;;5049571;28;20922;-81
2022/05/27 01:48:39;;;;;;;14.02;4.80;;;;;;;;;;5053767;28;20873;-80
2022/05/27 01:51:08;;;;;;;14.07;4.45;;;;;;;;;;5041973;28;20474;-81
2022/05/27 01:53:36;;;;;;;14.52;4.07;;;;;;;;;;5046809;28;20417;-82
2022/05/27 01:56:06;;;;;;;14.50;5.10;;;;;;;;;;5054270;28;20437;-79
2022/05/27 01:58:34;;;;;;;12.65;4.82;;;;;;;;;;5046822;28;20426;-80
2022/05/27 02:01:01;;;;;;;13.38;4.78;;;;;;;;;;5051842;28;20439;-80
2022/05/27 02:03:29;;;;;;;10.43;4.32;;;;;;;;;;5051799;28;20431;-81
2022/05/27 02:05:58;;;;;;;15.15;4.20;;;;;;;;;;5056331;28;20943;-81
2022/05/27 02:08:27;;;;;;;12.15;4.70;;;;;;;;;;5050930;28;20425;-80
2022/05/27 02:10:55;;;;;;;16.02;3.97;;;;;;;;;;5052596;28;20453;-82
2022/05/27 02:13:24;;;;;;;9.27;4.07;;;;;;;;;;5051012;28;21107;-80
2022/05/27 02:15:52;;;;;;;14.10;4.55;;;;;;;;;;5054291;28;20432;-81
2022/05/27 02:18:21;;;;;;;12.30;4.60;;;;;;;;;;5053050;28;20824;-81
2022/05/27 02:20:51;;;;;;;17.95;4.20;;;;;;;;;;5052397;28;20433;-81
2022/05/27 02:23:22;;;;;;;12.40;3.80;;;;;;;;;;5054100;28;20527;-80
2022/05/27 02:25:49;;;;;;;12.23;4.00;;;;;;;;;;5054108;28;20935;-80
2022/05/27 02:28:18;;;;;;;10.80;4.10;;;;;;;;;;5050089;28;20433;-80
2022/05/27 02:30:46;;;;;;;15.90;4.00;;;;;;;;;;5053598;28;20434;-79
2022/05/27 02:36:00;;;;;;;14.10;4.20;;;;;;;;;;5054185;28;20464;-81
2022/05/27 02:38:28;;;;;;;19.13;4.72;;;;;;;;;;5055588;28;20448;-80
2022/05/27 02:40:59;;;;;;;12.25;3.60;;;;;;;;;;5049442;28;20422;-80
2022/05/27 02:43:29;;;;;;;13.75;3.85;;;;;;;;;;5052794;28;20439;-80
2022/05/27 02:46:00;;;;;;;10.60;3.30;;;;;;;;;;5055074;28;20425;-82
2022/05/27 02:48:31;;;;;;;13.48;3.47;;;;;;;;;;5049068;28;20425;-79
2022/05/27 02:51:00;;;;;;;15.43;4.55;;;;;;;;;;5052150;28;20433;-79
2022/05/27 02:53:32;;;;;;;14.17;4.70;;;;;;;;;;5052252;28;20459;-80
2022/05/27 02:56:04;;;;;;;10.88;4.80;;;;;;;;;;5048992;28;20431;-81
2022/05/27 02:58:31;;;;;;;10.95;4.32;;;;;;;;;;5050549;28;20421;-80
2022/05/27 03:00:57;;;;;;;12.38;4.13;;;;;;;;;;5047918;28;20459;-80
2022/05/27 03:03:23;;;;;;;9.23;3.58;;;;;;;;;;5048099;28;20436;-79
2022/05/27 03:05:54;;;;;;;15.38;4.95;;;;;;;;;;5050901;28;20429;-79
2022/05/27 03:08:23;;;;;;;17.35;3.60;;;;;;;;;;5047550;28;20437;-81
2022/05/27 03:10:53;;;;;;;9.45;3.67;;;;;;;;;;5048807;28;20437;-79
2022/05/27 03:13:26;;;;;;;14.48;4.20;;;;;;;;;;5045016;28;20460;-81
2022/05/27 03:15:58;;;;;;;12.15;3.60;;;;;;;;;;5047454;28;21006;-80
2022/05/27 03:18:30;;;;;;;9.07;3.60;;;;;;;;;;5049552;28;20425;-80
2022/05/27 03:21:00;;;;;;;10.95;3.50;;;;;;;;;;5049536;28;20433;-80
2022/05/27 03:23:39;;;;;;;11.30;3.33;;;;;;;;;;5048969;28;20830;-80
2022/05/27 03:26:25;;;;;;;8.90;3.05;;;;;;;;;;5050348;28;20422;-79
2022/05/27 03:28:59;;;;;;;11.60;4.22;;;;;;;;;;5044425;28;20422;-79
2022/05/27 03:31:27;;;;;;;10.63;3.90;;;;;;;;;;5047943;28;20486;-80
2022/05/27 03:33:57;;;;;;;14.30;3.40;;;;;;;;;;5045328;28;20432;-81
2022/05/27 03:36:28;;;;;;;13.02;3.85;;;;;;;;;;5051749;28;20467;-81
2022/05/27 03:38:58;;;;;;;13.23;3.60;;;;;;;;;;5047715;28;20457;-81
2022/05/27 03:41:27;;;;;;;11.55;3.28;;;;;;;;;;5046123;28;20528;-81
2022/05/27 03:43:54;;;;;;;12.38;3.53;;;;;;;;;;5047664;28;20431;-80
2022/05/27 03:46:28;;;;;;;12.40;3.53;;;;;;;;;;5046092;28;20823;-80
2022/05/27 03:48:54;;;;;;;13.05;3.67;;;;;;;;;;5045240;28;20924;-80
2022/05/27 03:51:22;;;;;;;9.52;3.35;;;;;;;;;;5045218;28;20457;-80
2022/05/27 03:54:04;;;;;;;9.98;3.42;;;;;;;;;;5049274;28;20428;-80
2022/05/27 03:56:32;;;;;;;12.87;3.77;;;;;;;;;;5049651;28;20429;-79
2022/05/27 03:58:59;;;;;;;15.50;4.13;;;;;;;;;;5052600;28;20437;-81
2022/05/27 04:01:26;;;;;;;12.90;3.70;;;;;;;;;;5046494;28;20429;-80
2022/05/27 04:03:52;;;;;;;14.27;4.00;;;;;;;;;;5049050;28;20915;-80
2022/05/27 04:06:19;;;;;;;10.90;3.10;;;;;;;;;;5051549;28;20854;-81
2022/05/27 04:08:45;;;;;;;9.95;3.45;;;;;;;;;;5049732;28;20409;-79
2022/05/27 04:11:11;;;;;;;9.45;3.40;;;;;;;;;;5051044;28;20433;-81
2022/05/27 04:13:39;;;;;;;13.63;3.60;;;;;;;;;;5049402;28;20483;-79
2022/05/27 04:16:05;;;;;;;10.13;3.20;;;;;;;;;;5049753;28;20437;-80
2022/05/27 04:18:32;;;;;;;9.98;2.95;;;;;;;;;;5050298;28;20448;-79
2022/05/27 04:20:58;;;;;;;9.15;2.63;;;;;;;;;;5049240;28;20425;-80
2022/05/27 04:23:24;;;;;;;6.32;2.75;;;;;;;;;;5042937;28;20421;-80
2022/05/27 04:25:51;;;;;;;10.32;3.13;;;;;;;;;;5051670;28;20417;-80
2022/05/27 04:28:17;;;;;;;12.65;3.00;;;;;;;;;;5047908;28;20409;-81
2022/05/27 04:30:45;;;;;;;11.33;2.93;;;;;;;;;;5045756;28;20957;-80
2022/05/27 04:33:11;;;;;;;8.25;2.72;;;;;;;;;;5046773;28;20453;-80
2022/05/27 04:35:38;;;;;;;12.15;2.70;;;;;;;;;;5049946;28;20860;-80
2022/05/27 04:38:04;;;;;;;8.35;2.72;;;;;;;;;;5050131;28;20427;-79
2022/05/27 04:40:31;;;;;;;10.43;3.00;;;;;;;;;;5047611;28;20439;-80
2022/05/27 04:42:57;;;;;;;7.50;2.30;;;;;;;;;;5048790;28;20992;-81
2022/05/27 04:45:24;;;;;;;10.23;2.67;;;;;;;;;;5047423;28;20454;-80
2022/05/27 04:47:51;;;;;;;11.20;2.67;;;;;;;;;;5046110;28;20552;-81
2022/05/27 04:50:18;;;;;;;7.75;2.55;;;;;;;;;;5048117;28;20493;-82
2022/05/27 04:52:45;;;;;;;11.02;2.50;;;;;;;;;;5051153;28;20501;-79
2022/05/27 04:55:12;;;;;;;7.28;2.40;;;;;;;;;;5047365;28;20430;-80
2022/05/27 04:57:39;;;;;;;9.93;2.60;;;;;;;;;;5048789;28;20429;-82
2022/05/27 05:00:07;;;;;;;7.28;2.90;;;;;;;;;;5044638;28;20435;-78
2022/05/27 05:02:34;;;;;;;6.47;2.30;;;;;;;;;;5047261;28;20425;-81
2022/05/27 05:05:02;;;;;;;10.13;3.00;;;;;;;;;;5048754;28;20859;-82
2022/05/27 05:07:28;;;;;;;8.17;2.60;;;;;;;;;;5044818;28;20956;-81
2022/05/27 05:09:54;;;;;;;8.27;2.72;;;;;;;;;;5050761;28;20429;-79
2022/05/27 05:12:22;;;;;;;16.23;3.05;;;;;;;;;;5048895;28;20421;-80
2022/05/27 05:14:49;;;;;;;6.70;2.80;;;;;;;;;;5051004;28;20451;-79
2022/05/27 05:17:15;;;;;;;8.57;3.07;;;;;;;;;;5052519;28;20431;-80
2022/05/27 05:19:41;;;;;;;8.93;2.40;;;;;;;;;;5050070;28;20459;-80
2022/05/27 05:22:09;;;;;;;10.73;3.22;;;;;;;;;;5050064;28;20534;-79
2022/05/27 05:24:35;;;;;;;9.73;3.30;;;;;;;;;;5050807;28;20886;-79
2022/05/27 05:27:01;;;;;;;6.90;3.10;;;;;;;;;;5053880;28;20416;-81
2022/05/27 05:29:28;;;;;;;9.30;3.20;;;;;;;;;;5052384;28;20499;-79
2022/05/27 05:31:54;;;;;;;11.27;3.17;;;;;;;;;;5048876;28;20424;-79
2022/05/27 05:34:20;;;;;;;7.85;3.25;;;;;;;;;;5054240;28;20433;-80
2022/05/27 05:36:47;;;;;;;10.40;2.88;;;;;;;;;;5054753;28;20488;-81
2022/05/27 05:39:14;;;;;;;11.10;3.38;;;;;;;;;;5048781;28;20433;-80
2022/05/27 05:41:41;;;;;;;13.48;3.50;;;;;;;;;;5051901;28;20406;-80
2022/05/27 05:44:08;;;;;;;6.97;3.53;;;;;;;;;;5048781;28;21047;-82
2022/05/27 05:46:35;;;;;;;11.57;3.42;;;;;;;;;;5053449;28;20543;-81
2022/05/27 05:49:02;;;;;;;10.48;3.13;;;;;;;;;;5051127;28;20488;-79
2022/05/27 05:51:28;;;;;;;12.07;3.53;;;;;;;;;;5050633;28;20833;-81
2022/05/27 05:53:55;;;;;;;6.97;3.00;;;;;;;;;;5051854;28;20440;-81
2022/05/27 05:56:22;;;;;;;10.48;3.50;;;;;;;;;;5056140;28;20863;-79
2022/05/27 05:58:49;;;;;;;14.10;3.47;;;;;;;;;;5054452;28;20437;-81
2022/05/27 06:01:16;;;;;;;9.02;3.40;;;;;;;;;;5050805;28;20441;-81
2022/05/27 06:03:42;;;;;;;9.68;3.50;;;;;;;;;;5052280;28;20435;-80
2022/05/27 06:06:08;;;;;;;11.57;3.33;;;;;;;;;;5054876;28;20425;-82
2022/05/27 06:08:36;;;;;;;7.47;3.20;;;;;;;;;;5054503;28;20429;-81
2022/05/27 06:11:02;;;;;;;13.57;3.60;;;;;;;;;;5053400;28;20448;-82
2022/05/27 06:13:31;;;;;;;9.20;2.92;;;;;;;;;;5054631;28;20476;-81
2022/05/27 06:15:57;;;;;;;8.90;2.80;;;;;;;;;;5054660;28;20468;-82
2022/05/27 06:18:23;;;;;;;12.40;3.95;;;;;;;;;;5055383;28;20453;-82
2022/05/27 06:20:50;;;;;;;10.65;3.17;;;;;;;;;;5051152;28;20429;-80
2022/05/27 06:23:16;;;;;;;10.77;3.47;;;;;;;;;;5052809;28;20437;-80
2022/05/27 06:25:43;;;;;;;15.65;3.97;;;;;;;;;;5053869;28;20433;-80
2022/05/27 06:36:22;;;;;;;12.15;3.40;;;;;;;;;;5060884;28;20400;-81
2022/05/27 06:38:48;;;;;;;12.50;3.78;;;;;;;;;;5057352;28;20409;-81
2022/05/27 06:41:14;;;;;;;15.17;3.20;;;;;;;;;;5058843;28;21000;-83
2022/05/27 06:43:40;;;;;;;11.38;3.10;;;;;;;;;;5055225;28;20425;-82
2022/05/27 06:46:08;;;;;;;13.63;3.70;;;;;;;;;;5060173;28;20409;-82
2022/05/27 06:48:34;;;;;;;12.02;3.00;;;;;;;;;;5054549;28;20426;-80
2022/05/27 06:51:04;;;;;;;9.43;3.05;;;;;;;;;;5055704;28;20433;-83
2022/05/27 06:53:30;;;;;;;13.48;3.47;;;;;;;;;;5053982;28;20448;-82
2022/05/27 06:55:57;;;;;;;9.98;3.45;;;;;;;;;;5050397;28;20430;-80
2022/05/27 06:58:23;;;;;;;15.40;4.05;;;;;;;;;;5051074;28;20436;-82
2022/05/27 07:00:49;;;;;;;16.57;3.50;;;;;;;;;;5055608;28;20425;-81
2022/05/27 07:03:17;;;;;;;10.95;3.13;;;;;;;;;;5053059;28;20425;-80
2022/05/27 07:05:43;;;;;;;14.20;3.50;;;;;;;;;;5053033;28;20433;-80
2022/05/27 07:08:09;;;;;;;14.80;3.50;;;;;;;;;;5051023;28;21062;-82
2022/05/27 07:10:36;;;;;;;14.05;3.60;;;;;;;;;;5054000;28;20421;-81
2022/05/27 07:13:02;;;;;;;13.13;3.63;;;;;;;;;;5052696;28;20415;-81
2022/05/27 07:15:29;;;;;;;10.15;3.40;;;;;;;;;;5049325;28;20433;-82
2022/05/27 07:17:56;;;;;;;13.70;3.70;;;;;;;;;;5046669;23;20425;-86
2022/05/27 07:20:24;;;;;;;13.57;3.30;;;;;;;;;;5039107;28;20430;-89
2022/05/27 07:22:51;;;;;;;13.70;3.60;;;;;;;;;;5041896;28;20923;-88
2022/05/27 07:25:17;;;;;;;16.45;4.20;;;;;;;;;;5037532;28;21096;-85
2022/05/27 07:27:44;;;;;;;14.00;4.00;;;;;;;;;;5036160;28;20806;-87
2022/05/27 07:30:14;;;;;;;10.35;3.95;;;;;;;;;;5034159;28;20927;-87
2022/05/27 07:32:40;;;;;;;9.85;3.42;;;;;;;;;;5039636;28;20827;-88
2022/05/27 07:35:08;;;;;;;14.60;3.60;;;;;;;;;;5041021;28;20430;-88
2022/05/27 07:37:36;;;;;;;13.20;3.92;;;;;;;;;;5030717;28;20434;-88
2022/05/27 07:40:02;;;;;;;9.75;3.80;;;;;;;;;;5041494;28;20431;-88
2022/05/27 07:42:28;;;;;;;12.90;3.92;;;;;;;;;;5032343;28;20433;-88
2022/05/27 07:44:55;;;;;;;10.93;3.78;;;;;;;;;;5029224;28;20504;-87
2022/05/27 07:47:21;;;;;;;12.33;3.50;;;;;;;;;;5026265;28;20436;-87
2022/05/27 07:49:48;;;;;;;13.68;4.00;;;;;;;;;;5033479;28;20444;-87
2022/05/27 07:52:14;;;;;;;12.90;3.92;;;;;;;;;;5038063;28;20500;-88
2022/05/27 07:54:42;;;;;;;13.75;4.43;;;;;;;;;;5029358;28;20537;-87
2022/05/27 07:57:23;;;;;;;12.63;3.97;;;;;;;;;;5034204;28;20423;-86
2022/05/27 07:59:49;;;;;;;11.82;3.90;;;;;;;;;;5036168;28;20774;-86
2022/05/27 08:02:16;;;;;;;11.88;3.92;;;;;;;;;;5034634;28;20415;-88
2022/05/27 08:04:42;;;;;;;12.75;3.70;;;;;;;;;;5030233;28;20474;-86
2022/05/27 08:07:08;;;;;;;16.90;4.17;;;;;;;;;;5033929;28;20423;-86
2022/05/27 08:09:34;;;;;;;15.13;4.75;;;;;;;;;;5039358;28;20445;-88
2022/05/27 08:12:02;;;;;;;15.57;4.20;;;;;;;;;;5036930;28;20420;-87
2022/05/27 08:14:28;;;;;;;12.82;3.90;;;;;;;;;;5035796;28;20922;-87
2022/05/27 08:16:55;;;;;;;15.80;3.95;;;;;;;;;;5033640;28;20422;-85
2022/05/27 08:19:21;;;;;;;16.10;4.10;;;;;;;;;;5035543;28;20496;-88
2022/05/27 08:21:47;;;;;;;13.57;4.35;;;;;;;;;;5031998;28;20443;-88
2022/05/27 08:24:13;;;;;;;13.05;3.60;;;;;;;;;;5038964;28;20872;-84
2022/05/27 08:26:40;;;;;;;13.88;4.25;;;;;;;;;;5029117;28;20482;-88
2022/05/27 08:29:08;;;;;;;12.98;4.50;;;;;;;;;;5035813;28;20488;-87
2022/05/27 08:31:34;;;;;;;10.98;3.78;;;;;;;;;;5028869;28;20978;-87
2022/05/27 08:39:28;;;;;;;9.88;3.30;;;;;;;;;;5026822;28;20392;-88
2022/05/27 08:42:02;;;;;;;14.23;3.78;;;;;;;;;;5031273;28;20402;-88
2022/05/27 08:44:35;;;;;;;12.50;3.60;;;;;;;;;;5026904;28;20436;-87
2022/05/27 08:47:12;;;;;;;17.20;3.33;;;;;;;;;;5026793;28;20421;-90
2022/05/27 08:49:40;;;;;;;12.50;3.55;;;;;;;;;;5035389;28;20435;-88
2022/05/27 08:52:11;;;;;;;9.00;3.40;;;;;;;;;;5037784;28;20418;-87
2022/05/27 08:54:40;;;;;;;12.30;3.70;;;;;;;;;;5029068;28;20809;-88
2022/05/27 08:59:56;;;;;;;12.15;3.20;;;;;;;;;;5030232;28;20429;-89
2022/05/27 09:02:27;;;;;;;13.97;4.23;;;;;;;;;;5038367;28;20423;-88
2022/05/27 09:04:58;;;;;;;12.75;3.97;;;;;;;;;;5038275;28;20801;-88
2022/05/27 09:07:34;;;;;;;14.65;3.53;;;;;;;;;;5044751;28;20856;-91
2022/05/27 09:10:02;;;;;;;13.07;3.78;;;;;;;;;;5034994;28;20943;-88
2022/05/27 09:12:38;;;;;;;12.20;3.88;;;;;;;;;;5035791;28;20419;-89
2022/05/27 09:15:12;;;;;;;14.17;3.57;;;;;;;;;;5036728;28;20533;-90
2022/05/27 09:17:42;;;;;;;9.82;3.63;;;;;;;;;;5032948;28;20425;-87
2022/05/27 09:20:12;;;;;;;13.27;3.03;;;;;;;;;;5029827;28;20446;-89
2022/05/27 09:22:43;;;;;;;12.50;3.90;;;;;;;;;;5034451;28;20502;-89
2022/05/27 09:25:16;;;;;;;12.30;3.47;;;;;;;;;;5029048;28;20855;-88
2022/05/27 09:27:47;;;;;;;9.37;3.17;;;;;;;;;;5038408;28;20420;-85
2022/05/27 09:30:16;;;;;;;12.63;3.50;;;;;;;;;;5034997;28;20428;-86
2022/05/27 09:32:46;;;;;;;13.07;3.88;;;;;;;;;;5037227;28;20414;-88
2022/05/27 09:35:13;;;;;;;14.38;4.43;;;;;;;;;;5037470;28;20444;-89
2022/05/27 09:37:41;;;;;;;14.75;3.78;;;;;;;;;;5011013;28;20422;-89
2022/05/27 09:40:11;;;;;;;10.23;3.65;;;;;;;;;;5031725;28;20431;-89
2022/05/27 09:42:41;;;;;;;12.20;3.20;;;;;;;;;;5036631;28;20455;-88
2022/05/27 09:45:08;;;;;;;9.45;3.05;;;;;;;;;;5035185;28;20865;-89
2022/05/27 09:47:36;;;;;;;11.10;3.72;;;;;;;;;;5033880;28;20425;-89
2022/05/27 09:50:04;;;;;;;9.30;3.13;;;;;;;;;;5028302;28;20445;-89
2022/05/27 09:52:36;;;;;;;13.15;3.63;;;;;;;;;;5038369;28;20418;-89
2022/05/27 09:55:14;;;;;;;10.13;3.08;;;;;;;;;;5026524;28;20428;-89
2022/05/27 09:57:53;;;;;;;10.25;3.20;;;;;;;;;;5040910;28;20492;-88
2022/05/27 10:00:32;;;;;;;12.25;3.70;;;;;;;;;;5042700;28;20427;-87
2022/05/27 10:03:00;;;;;;;11.30;3.40;;;;;;;;;;5036769;28;20421;-90
2022/05/27 10:05:35;;;;;;;8.70;2.80;;;;;;;;;;5041422;28;20411;-90
2022/05/27 10:08:01;;;;;;;11.80;3.90;;;;;;;;;;5031858;28;20425;-90
2022/05/27 10:10:29;;;;;;;12.57;4.05;;;;;;;;;;5033951;28;20422;-88
2022/05/27 10:12:57;;;;;;;11.63;3.65;;;;;;;;;;5029714;28;20426;-88
2022/05/27 10:15:24;;;;;;;10.05;3.65;;;;;;;;;;5033499;28;20433;-88
2022/05/27 10:17:50;;;;;;;13.87;4.17;;;;;;;;;;5038257;28;20573;-90
2022/05/27 10:20:20;;;;;;;11.48;3.63;;;;;;;;;;5031128;28;20423;-88
2022/05/27 10:23:00;;;;;;;12.93;3.65;;;;;;;;;;5034288;28;20419;-88
2022/05/27 10:25:31;;;;;;;13.20;3.70;;;;;;;;;;5033399;28;20462;-90
2022/05/27 10:27:58;;;;;;;9.82;3.40;;;;;;;;;;5033488;28;20920;-90
2022/05/27 10:30:26;;;;;;;10.32;3.45;;;;;;;;;;5023272;28;20408;-89
2022/05/27 10:32:52;;;;;;;11.88;3.70;;;;;;;;;;5032978;28;20432;-89
2022/05/27 10:35:34;;;;;;;10.73;3.00;;;;;;;;;;5032023;28;20419;-88
2022/05/27 10:38:10;;;;;;;9.75;3.15;;;;;;;;;;5009747;28;20425;-91
2022/05/27 10:40:38;;;;;;;10.77;3.30;;;;;;;;;;5029918;28;20426;-84
2022/05/27 10:43:11;;;;;;;12.45;3.50;;;;;;;;;;5031615;28;20437;-84
2022/05/27 10:45:39;;;;;;;7.93;2.97;;;;;;;;;;5037117;28;20422;-85
2022/05/27 10:48:20;;;;;;;11.35;3.20;;;;;;;;;;5036814;28;20802;-84
2022/05/27 10:50:52;;;;;;;11.63;3.20;;;;;;;;;;5036930;28;20940;-86
2022/05/27 10:53:27;;;;;;;12.32;3.60;;;;;;;;;;5037323;28;20421;-83
2022/05/27 10:55:58;;;;;;;7.43;2.80;;;;;;;;;;5032982;28;20436;-86
2022/05/27 11:04:25;;;;;;;9.88;3.45;;;;;;;;;;5033531;28;20554;-85
2022/05/27 11:06:59;;;;;;;11.32;3.10;;;;;;;;;;5035175;28;20907;-87
2022/05/27 11:09:31;;;;;;;12.00;4.22;;;;;;;;;;5035051;28;20435;-86
2022/05/27 11:11:59;;;;;;;13.05;3.72;;;;;;;;;;5034268;28;20415;-85
2022/05/27 11:17:22;;;;;;;14.53;3.80;;;;;;;;;;5032990;28;20547;-86
2022/05/27 11:20:02;;;;;;;11.23;3.40;;;;;;;;;;5038035;28;20431;-86
2022/05/27 11:22:35;;;;;;;16.63;3.60;;;;;;;;;;5038123;28;20514;-87
2022/05/27 11:25:18;;;;;;;14.05;3.00;;;;;;;;;;5034112;28;20483;-87
2022/05/27 11:27:53;;;;;;;14.73;4.90;;;;;;;;;;5036858;28;20417;-86
2022/05/27 11:30:31;;;;;;;15.32;4.55;;;;;;;;;;5034393;28;20427;-88
2022/05/27 11:33:15;;;;;;;13.63;3.30;;;;;;;;;;5038171;28;20435;-84
2022/05/27 11:35:56;;;;;;;12.63;3.72;;;;;;;;;;5036575;28;20439;-84
2022/05/27 11:38:29;;;;;;;11.05;3.30;;;;;;;;;;5037939;28;20413;-86
2022/05/27 11:41:00;;;;;;;10.30;3.25;;;;;;;;;;5023105;28;20432;-86
2022/05/27 11:43:38;;;;;;;14.98;4.15;;;;;;;;;;5033889;28;20808;-88
2022/05/27 11:46:18;;;;;;;11.93;3.35;;;;;;;;;;5034540;28;20471;-88
2022/05/27 11:48:48;;;;;;;9.30;3.00;;;;;;;;;;5034357;28;20423;-86
2022/05/27 11:51:20;;;;;;;11.65;2.83;;;;;;;;;;5035981;28;20426;-87
2022/05/27 11:54:08;;;;;;;11.50;3.30;;;;;;;;;;5031030;28;20423;-83
2022/05/27 11:56:39;;;;;;;9.68;2.67;;;;;;;;;;5037186;28;20435;-84
2022/05/27 11:59:08;;;;;;;13.50;3.10;;;;;;;;;;5036469;28;20432;-86
2022/05/27 12:01:36;;;;;;;15.43;3.20;;;;;;;;;;5035519;28;20443;-86
2022/05/27 12:04:06;;;;;;;18.70;3.78;;;;;;;;;;5040452;28;20458;-83
2022/05/27 12:06:34;;;;;;;13.23;3.72;;;;;;;;;;5036229;28;20512;-85
2022/05/27 12:09:05;;;;;;;13.45;3.55;;;;;;;;;;5037483;28;20841;-85
2022/05/27 12:11:34;;;;;;;12.68;3.05;;;;;;;;;;5040588;28;20931;-83
2022/05/27 12:14:04;;;;;;;10.38;3.20;;;;;;;;;;5035021;28;20430;-86
2022/05/27 12:16:32;;;;;;;33.35;8.20;;;;;;;;;;5036805;28;20444;-85
2022/05/27 12:19:00;;;;;;;11.75;3.60;;;;;;;;;;5041411;28;20426;-87
2022/05/27 12:21:28;;;;;;;14.85;3.60;;;;;;;;;;5041817;28;20418;-85
2022/05/27 12:23:55;;;;;;;11.82;3.90;;;;;;;;;;5041935;28;20427;-85
2022/05/27 12:26:31;;;;;;;12.35;3.97;;;;;;;;;;5037932;28;20926;-85
2022/05/27 12:28:59;;;;;;;10.40;3.40;;;;;;;;;;5035554;28;20440;-87
2022/05/27 12:31:27;;;;;;;11.25;3.20;;;;;;;;;;5039791;28;20434;-85
2022/05/27 12:33:53;;;;;;;11.57;3.20;;;;;;;;;;5042618;28;20452;-82
2022/05/27 12:36:22;;;;;;;8.57;2.75;;;;;;;;;;5039878;28;20544;-84
2022/05/27 12:38:52;;;;;;;14.00;3.40;;;;;;;;;;5035673;28;20406;-85
2022/05/27 12:41:31;;;;;;;10.80;3.10;;;;;;;;;;5035653;28;20535;-84
2022/05/27 12:44:00;;;;;;;9.77;3.20;;;;;;;;;;5034742;28;20429;-85
2022/05/27 12:46:31;;;;;;;8.90;3.03;;;;;;;;;;5030684;28;20425;-85
2022/05/27 12:49:12;;;;;;;10.43;2.90;;;;;;;;;;5033708;28;20805;-86
2022/05/27 12:51:42;;;;;;;10.87;3.40;;;;;;;;;;5032601;28;20428;-85
2022/05/27 12:54:08;;;;;;;13.60;3.20;;;;;;;;;;5030791;28;20438;-87
2022/05/27 13:02:52;;;;;;;9.50;3.10;;;;;;;;;;5030423;28;20453;-84
2022/05/27 13:05:20;;;;;;;10.68;2.92;;;;;;;;;;5036972;28;20465;-87
2022/05/27 13:07:49;;;;;;;15.95;4.20;;;;;;;;;;5037008;28;20419;-88
2022/05/27 13:10:42;;;;;;;12.43;3.42;;;;;;;;;;5030797;28;20510;-86
2022/05/27 13:13:12;;;;;;;11.52;3.00;;;;;;;;;;4998210;28;20442;-88
2022/05/27 13:15:44;;;;;;;10.90;3.38;;;;;;;;;;5025429;28;20788;-86
2022/05/27 13:18:13;;;;;;;11.07;3.30;;;;;;;;;;5034553;28;20424;-85
2022/05/27 13:20:42;;;;;;;12.03;3.57;;;;;;;;;;5032737;28;20420;-85
2022/05/27 13:23:12;;;;;;;8.50;2.90;;;;;;;;;;5030938;28;20434;-87
2022/05/27 13:25:39;;;;;;;11.80;3.67;;;;;;;;;;5038103;28;20492;-86
2022/05/27 13:28:10;;;;;;;13.52;3.30;;;;;;;;;;5037623;22;20512;-80
2022/05/27 13:30:52;;;;;;;11.63;3.10;;;;;;;;;;5044794;28;20444;-80
2022/05/27 13:33:23;;;;;;;12.43;3.60;;;;;;;;;;5047823;28;20429;-80
2022/05/27 13:35:50;;;;;;;11.63;3.30;;;;;;;;;;5052902;28;20429;-82
2022/05/27 13:38:18;;;;;;;9.52;3.10;;;;;;;;;;5050444;28;20433;-79
2022/05/27 13:40:45;;;;;;;9.15;2.70;;;;;;;;;;5051195;28;20464;-79
2022/05/27 13:43:17;;;;;;;8.90;2.55;;;;;;;;;;5047884;28;20429;-80
2022/05/27 13:45:44;;;;;;;7.83;2.80;;;;;;;;;;5047239;28;20493;-80
2022/05/27 13:48:13;;;;;;;5.95;2.22;;;;;;;;;;5050765;28;20435;-82
2022/05/27 13:50:43;;;;;;;7.75;2.28;;;;;;;;;;5050233;28;20495;-82
2022/05/27 13:53:16;;;;;;;9.13;3.00;;;;;;;;;;5050273;28;20448;-81
2022/05/27 13:55:42;;;;;;;11.63;2.92;;;;;;;;;;5051954;28;20433;-81
2022/05/27 13:58:09;;;;;;;12.87;3.00;;;;;;;;;;5050820;28;20429;-84
2022/05/27 14:00:38;;;;;;;7.30;2.58;;;;;;;;;;5050219;28;20492;-83
2022/05/27 14:03:04;;;;;;;8.07;2.30;;;;;;;;;;5046431;28;20433;-80
2022/05/27 14:05:32;;;;;;;8.70;2.70;;;;;;;;;;5052600;28;20440;-81
2022/05/27 14:08:01;;;;;;;9.57;2.67;;;;;;;;;;5051428;28;20452;-78
2022/05/27 14:10:28;;;;;;;8.32;2.95;;;;;;;;;;5048267;28;20565;-80
2022/05/27 14:12:56;;;;;;;8.15;2.80;;;;;;;;;;5051682;28;20421;-81
2022/05/27 14:15:24;;;;;;;10.32;2.97;;;;;;;;;;5049763;28;20869;-82
2022/05/27 14:17:51;;;;;;;10.87;3.10;;;;;;;;;;5048117;28;20424;-80
2022/05/27 14:20:24;;;;;;;11.13;3.00;;;;;;;;;;5047983;28;20435;-80
2022/05/27 14:22:50;;;;;;;9.85;2.65;;;;;;;;;;5051138;28;20870;-82
2022/05/27 14:25:20;;;;;;;10.63;3.10;;;;;;;;;;5051973;28;20426;-80
2022/05/27 14:27:48;;;;;;;11.27;3.03;;;;;;;;;;5051075;28;20429;-82
2022/05/27 14:30:16;;;;;;;11.73;3.70;;;;;;;;;;5047011;28;20451;-80
2022/05/27 14:32:42;;;;;;;10.50;3.35;;;;;;;;;;5048859;28;20423;-80
2022/05/27 14:35:10;;;;;;;10.50;3.33;;;;;;;;;;5049258;28;20829;-82
2022/05/27 14:37:43;;;;;;;11.43;3.53;;;;;;;;;;5052999;28;20508;-81
2022/05/27 14:40:11;;;;;;;11.70;4.10;;;;;;;;;;5050221;28;20484;-83
2022/05/27 14:42:38;;;;;;;15.82;3.90;;;;;;;;;;5050693;28;20444;-81
2022/05/27 14:45:11;;;;;;;10.02;3.67;;;;;;;;;;5049863;28;20478;-79
2022/05/27 14:47:37;;;;;;;11.60;3.23;;;;;;;;;;5052331;28;20645;-81
2022/05/27 14:50:16;;;;;;;11.80;3.20;;;;;;;;;;5052314;28;20461;-82
2022/05/27 14:52:44;;;;;;;13.75;3.78;;;;;;;;;;5050509;28;20831;-81
2022/05/27 14:55:12;;;;;;;15.98;3.40;;;;;;;;;;5051097;28;20519;-81
2022/05/27 14:57:40;;;;;;;11.88;3.72;;;;;;;;;;5050797;28;20531;-83
2022/05/27 15:00:09;;;;;;;18.73;4.20;;;;;;;;;;5051970;28;20421;-81
2022/05/27 15:02:48;;;;;;;11.75;3.50;;;;;;;;;;5049829;28;20417;-83
2022/05/27 15:05:26;;;;;;;11.40;3.00;;;;;;;;;;5051225;28;20837;-82
2022/05/27 15:07:54;;;;;;;12.50;3.78;;;;;;;;;;5047764;28;20429;-80
2022/05/27 15:10:22;;;;;;;14.88;3.70;;;;;;;;;;5048346;28;20919;-81
2022/05/27 15:12:50;;;;;;;11.90;3.55;;;;;;;;;;5045799;28;21126;-80
2022/05/27 15:15:30;;;;;;;12.32;3.47;;;;;;;;;;5047964;28;20441;-80
2022/05/27 15:18:02;;;;;;;13.27;3.88;;;;;;;;;;5047031;28;20505;-81
2022/05/27 15:20:28;;;;;;;16.15;4.15;;;;;;;;;;5047550;28;20495;-85